Time;durP1;ratioP1;P1;durP2;ratioP2;P2;SDS_P1;SDS_P2;PMS_P1;PMS_P2;Temp;Humidity;BMP_temperature;BMP_pressure;BME280_temperature;BME280_humidity;BME280_pressure;Samples;Min_cycle;Max_cycle;Signal;HPM_P1;HPM_P2
2023/01/15 00:01:04;;;;;;;3.63;0.90;;;;;;;;;;5013767;28;20036;-83
2023/01/15 00:03:30;;;;;;;2.53;0.90;;;;;;;;;;5009438;28;20072;-83
2023/01/15 00:05:56;;;;;;;4.13;0.90;;;;;;;;;;5011572;28;20030;-83
2023/01/15 00:08:21;;;;;;;3.35;0.82;;;;;;;;;;5012231;28;20524;-83
2023/01/15 00:10:47;;;;;;;6.20;1.00;;;;;;;;;;5006275;28;20021;-83
2023/01/15 00:13:12;;;;;;;3.95;0.63;;;;;;;;;;5009248;28;20042;-83
2023/01/15 00:15:38;;;;;;;6.13;0.95;;;;;;;;;;5005286;28;20029;-83
2023/01/15 00:18:03;;;;;;;3.75;0.73;;;;;;;;;;5008933;28;20034;-83
2023/01/15 00:20:29;;;;;;;10.20;1.77;;;;;;;;;;5000115;28;20026;-83
2023/01/15 00:22:54;;;;;;;3.88;0.90;;;;;;;;;;5002653;28;21311;-83
2023/01/15 00:28:04;;;;;;;5.47;1.15;;;;;;;;;;5009126;28;20041;-83
2023/01/15 00:30:29;;;;;;;3.70;1.00;;;;;;;;;;5006342;28;20654;-82
2023/01/15 00:32:54;;;;;;;4.80;0.93;;;;;;;;;;5018624;28;20034;-83
2023/01/15 00:35:22;;;;;;;5.38;1.17;;;;;;;;;;5006722;28;20034;-83
2023/01/15 00:37:48;;;;;;;6.45;1.23;;;;;;;;;;5009432;28;20030;-82
2023/01/15 00:40:16;;;;;;;3.85;0.70;;;;;;;;;;5003297;28;20573;-82
2023/01/15 00:42:41;;;;;;;5.20;1.05;;;;;;;;;;5009842;28;20530;-82
2023/01/15 00:45:11;;;;;;;6.30;1.00;;;;;;;;;;5011315;28;20112;-82
2023/01/15 00:47:41;;;;;;;5.55;0.80;;;;;;;;;;5005206;28;20040;-83
2023/01/15 00:50:10;;;;;;;5.57;0.90;;;;;;;;;;5005006;28;20032;-83
2023/01/15 00:52:36;;;;;;;6.70;1.17;;;;;;;;;;5017073;28;20124;-83
2023/01/15 00:55:01;;;;;;;3.15;0.73;;;;;;;;;;5022214;28;20121;-83
2023/01/15 00:57:27;;;;;;;6.30;1.20;;;;;;;;;;5009991;28;20034;-83
2023/01/15 00:59:52;;;;;;;3.78;1.02;;;;;;;;;;5010368;28;20091;-83
2023/01/15 01:02:18;;;;;;;7.82;1.00;;;;;;;;;;5024089;28;20369;-83
2023/01/15 01:04:43;;;;;;;8.30;1.27;;;;;;;;;;5012858;28;20030;-83
2023/01/15 01:07:09;;;;;;;4.32;0.80;;;;;;;;;;5003236;28;20047;-83
2023/01/15 01:09:34;;;;;;;4.47;0.98;;;;;;;;;;5011189;28;20367;-83
2023/01/15 01:12:00;;;;;;;3.78;0.77;;;;;;;;;;5009418;28;20056;-83
2023/01/15 01:14:26;;;;;;;3.03;0.73;;;;;;;;;;5020542;28;20088;-83
2023/01/15 01:16:51;;;;;;;6.80;0.68;;;;;;;;;;5005146;28;20026;-83
2023/01/15 01:19:23;;;;;;;3.10;0.50;;;;;;;;;;5007674;28;20033;-82
2023/01/15 01:21:49;;;;;;;4.18;0.82;;;;;;;;;;5009964;28;20544;-83
2023/01/15 01:24:18;;;;;;;6.53;0.75;;;;;;;;;;5007697;28;20054;-83
2023/01/15 01:26:44;;;;;;;4.93;0.60;;;;;;;;;;5005493;28;20021;-83
2023/01/15 01:29:19;;;;;;;4.25;0.77;;;;;;;;;;5009485;28;20109;-83
2023/01/15 01:31:46;;;;;;;5.28;0.68;;;;;;;;;;5023418;28;20029;-83
2023/01/15 01:34:13;;;;;;;7.38;1.08;;;;;;;;;;5006247;28;20026;-82
2023/01/15 01:36:40;;;;;;;3.60;0.75;;;;;;;;;;5024162;28;20025;-82
2023/01/15 01:39:10;;;;;;;6.38;0.80;;;;;;;;;;5008018;28;20033;-83
2023/01/15 01:41:36;;;;;;;5.93;1.02;;;;;;;;;;5004235;28;20029;-83
2023/01/15 01:44:21;;;;;;;5.88;1.10;;;;;;;;;;5004345;28;20026;-83
2023/01/15 01:46:46;;;;;;;4.68;0.80;;;;;;;;;;5009972;28;20092;-84
2023/01/15 01:49:13;;;;;;;3.20;0.60;;;;;;;;;;5018517;28;20033;-83
2023/01/15 01:51:52;;;;;;;4.95;1.00;;;;;;;;;;5004627;28;20121;-83
2023/01/15 01:54:21;;;;;;;6.35;1.05;;;;;;;;;;5004326;28;20549;-83
2023/01/15 01:56:48;;;;;;;7.32;1.02;;;;;;;;;;5004199;28;20038;-83
2023/01/15 01:59:15;;;;;;;5.68;0.77;;;;;;;;;;5019505;28;20096;-83
2023/01/15 02:01:40;;;;;;;5.88;1.02;;;;;;;;;;5001016;28;20121;-83
2023/01/15 02:04:08;;;;;;;4.10;0.77;;;;;;;;;;5008912;28;20101;-83
2023/01/15 02:06:35;;;;;;;4.15;0.75;;;;;;;;;;5010254;28;20037;-83
2023/01/15 02:09:01;;;;;;;5.05;1.13;;;;;;;;;;5004978;28;20507;-83
2023/01/15 02:11:29;;;;;;;6.20;0.90;;;;;;;;;;5001468;28;20030;-84
2023/01/15 02:14:02;;;;;;;5.43;0.85;;;;;;;;;;5001976;28;20498;-83
2023/01/15 02:16:38;;;;;;;2.40;0.68;;;;;;;;;;5023370;28;20021;-83
2023/01/15 02:19:42;;;;;;;5.45;0.90;;;;;;;;;;5021690;28;20029;-84
2023/01/15 02:22:10;;;;;;;;;;;;;;;;;;4961426;28;20038;-84
2023/01/15 02:24:53;;;;;;;6.60;0.80;;;;;;;;;;4949284;28;21209;-83
2023/01/15 02:27:21;;;;;;;3.78;0.77;;;;;;;;;;4984500;28;20141;-83
2023/01/15 02:30:27;;;;;;;5.80;0.73;;;;;;;;;;5007993;28;20029;-83
2023/01/15 02:32:57;;;;;;;3.50;0.80;;;;;;;;;;5007680;28;20113;-83
2023/01/15 02:35:33;;;;;;;7.38;0.82;;;;;;;;;;5003845;28;20040;-83
2023/01/15 02:38:04;;;;;;;6.22;0.80;;;;;;;;;;5006154;28;20037;-83
2023/01/15 02:40:30;;;;;;;5.85;0.75;;;;;;;;;;5005956;28;20034;-83
2023/01/15 02:42:57;;;;;;;2.00;0.70;;;;;;;;;;5006608;28;20088;-83
2023/01/15 02:45:28;;;;;;;6.38;1.05;;;;;;;;;;5002706;28;20036;-82
2023/01/15 02:47:57;;;;;;;3.88;0.70;;;;;;;;;;5003008;28;20030;-83
2023/01/15 02:50:29;;;;;;;7.43;1.20;;;;;;;;;;4999488;28;20497;-83
2023/01/15 02:53:00;;;;;;;5.28;0.90;;;;;;;;;;5003144;28;20030;-83
2023/01/15 02:55:33;;;;;;;4.88;0.98;;;;;;;;;;5005514;28;20028;-83
2023/01/15 02:58:03;;;;;;;3.05;0.85;;;;;;;;;;5007759;28;20041;-83
2023/01/15 03:00:33;;;;;;;6.57;1.08;;;;;;;;;;5007182;28;20128;-83
2023/01/15 03:03:06;;;;;;;3.33;1.10;;;;;;;;;;5005947;28;20026;-83
2023/01/15 03:05:55;;;;;;;5.80;0.80;;;;;;;;;;5007821;28;20394;-82
2023/01/15 03:08:22;;;;;;;4.35;0.80;;;;;;;;;;5011362;28;20112;-83
2023/01/15 03:10:59;;;;;;;5.85;0.90;;;;;;;;;;5009779;28;20040;-83
2023/01/15 03:13:43;;;;;;;5.45;0.80;;;;;;;;;;5007536;28;20088;-83
2023/01/15 03:16:35;;;;;;;4.65;0.77;;;;;;;;;;5006339;28;20119;-83
2023/01/15 03:19:36;;;;;;;3.15;0.90;;;;;;;;;;5014342;28;20064;-83
2023/01/15 03:22:05;;;;;;;3.05;0.82;;;;;;;;;;5002117;28;20026;-83
2023/01/15 03:24:46;;;;;;;4.32;0.88;;;;;;;;;;5008833;28;20022;-83
2023/01/15 03:27:11;;;;;;;3.38;0.50;;;;;;;;;;5021645;28;20124;-83
2023/01/15 03:29:41;;;;;;;5.00;0.73;;;;;;;;;;5008471;28;20026;-83
2023/01/15 03:32:06;;;;;;;3.42;0.63;;;;;;;;;;5017763;28;20042;-83
2023/01/15 03:34:45;;;;;;;4.25;0.90;;;;;;;;;;5004489;28;20041;-83
2023/01/15 03:37:11;;;;;;;5.00;0.80;;;;;;;;;;4999720;28;20116;-83
2023/01/15 03:39:38;;;;;;;2.72;0.70;;;;;;;;;;5002941;28;20548;-83
2023/01/15 03:42:24;;;;;;;6.90;0.90;;;;;;;;;;5002015;28;20092;-83
2023/01/15 03:44:56;;;;;;;4.60;0.70;;;;;;;;;;5003409;28;20034;-83
2023/01/15 03:47:29;;;;;;;5.57;0.98;;;;;;;;;;5020638;28;20036;-83
2023/01/15 03:50:26;;;;;;;2.90;0.77;;;;;;;;;;5003831;28;20080;-83
2023/01/15 03:53:14;;;;;;;4.18;0.88;;;;;;;;;;5000309;28;20490;-83
2023/01/15 03:56:04;;;;;;;3.83;0.70;;;;;;;;;;5001882;28;20132;-82
2023/01/15 03:58:43;;;;;;;2.88;0.98;;;;;;;;;;5004327;28;20034;-83
2023/01/15 04:01:13;;;;;;;5.65;1.05;;;;;;;;;;5003176;28;20111;-83
2023/01/15 04:03:39;;;;;;;3.45;0.90;;;;;;;;;;5003945;28;20026;-83
2023/01/15 04:06:06;;;;;;;5.45;1.10;;;;;;;;;;5009163;28;20034;-83
2023/01/15 04:08:36;;;;;;;3.17;0.55;;;;;;;;;;5007259;28;20108;-82
2023/01/15 04:11:02;;;;;;;2.55;0.60;;;;;;;;;;5008783;28;20478;-83
2023/01/15 04:13:28;;;;;;;4.93;1.10;;;;;;;;;;5008036;28;20028;-82
2023/01/15 04:15:54;;;;;;;4.75;0.85;;;;;;;;;;5007479;28;20025;-82
2023/01/15 04:18:20;;;;;;;5.95;1.27;;;;;;;;;;4995250;28;21437;-83
2023/01/15 04:20:45;;;;;;;4.68;1.00;;;;;;;;;;5007341;28;20026;-83
2023/01/15 04:23:11;;;;;;;6.07;1.17;;;;;;;;;;5013519;28;20022;-82
2023/01/15 04:25:38;;;;;;;5.30;0.70;;;;;;;;;;5008432;28;20028;-83
2023/01/15 04:28:03;;;;;;;4.88;0.70;;;;;;;;;;5004308;28;20114;-82
2023/01/15 04:30:29;;;;;;;4.55;1.05;;;;;;;;;;5007454;28;20057;-82
2023/01/15 04:32:54;;;;;;;5.68;0.80;;;;;;;;;;5004936;28;20139;-82
2023/01/15 04:35:20;;;;;;;3.50;1.10;;;;;;;;;;5004140;28;20030;-82
2023/01/15 04:37:46;;;;;;;3.45;0.80;;;;;;;;;;4987833;28;22171;-83
2023/01/15 04:44:05;;;;;;;3.97;0.80;;;;;;;;;;5013907;28;20026;-82
2023/01/15 04:45:44;;;;;;;7.65;1.02;;;;;;;;;;5011043;28;20080;-83
2023/01/15 04:48:11;;;;;;;4.53;1.33;;;;;;;;;;5011374;28;20380;-83
2023/01/15 04:50:37;;;;;;;5.28;0.77;;;;;;;;;;5008768;28;20022;-83
2023/01/15 04:53:02;;;;;;;4.97;0.93;;;;;;;;;;5010485;28;20026;-82
2023/01/15 04:55:28;;;;;;;7.47;1.00;;;;;;;;;;5011401;28;20034;-82
2023/01/15 04:57:54;;;;;;;5.70;1.05;;;;;;;;;;5008752;28;20512;-82
2023/01/15 05:00:20;;;;;;;4.43;1.02;;;;;;;;;;5008261;28;20059;-83
2023/01/15 05:02:45;;;;;;;6.28;1.08;;;;;;;;;;5011809;28;20029;-82
2023/01/15 05:05:10;;;;;;;5.28;0.90;;;;;;;;;;5011179;28;20033;-83
2023/01/15 05:07:36;;;;;;;5.55;1.10;;;;;;;;;;5008362;28;20079;-83
2023/01/15 05:10:01;;;;;;;4.93;1.02;;;;;;;;;;5011149;28;20030;-82
2023/01/15 05:12:27;;;;;;;5.72;0.75;;;;;;;;;;5009424;28;20432;-83
2023/01/15 05:14:52;;;;;;;6.30;0.90;;;;;;;;;;5010356;28;20559;-82
2023/01/15 05:17:17;;;;;;;3.58;0.60;;;;;;;;;;5005602;28;20029;-82
2023/01/15 05:19:43;;;;;;;4.50;0.95;;;;;;;;;;5005981;28;20022;-82
2023/01/15 05:22:08;;;;;;;4.57;0.90;;;;;;;;;;5007161;28;20116;-83
2023/01/15 05:24:34;;;;;;;3.67;0.80;;;;;;;;;;5007134;28;20026;-82
2023/01/15 05:26:59;;;;;;;3.72;0.80;;;;;;;;;;5009586;28;20034;-83
2023/01/15 05:29:25;;;;;;;5.65;0.90;;;;;;;;;;5009906;28;20539;-82
2023/01/15 05:31:50;;;;;;;3.65;1.05;;;;;;;;;;5004695;28;20036;-82
2023/01/15 05:34:16;;;;;;;4.13;0.88;;;;;;;;;;5003270;28;20608;-82
2023/01/15 05:36:41;;;;;;;4.20;0.93;;;;;;;;;;5004508;28;20030;-82
2023/01/15 05:39:07;;;;;;;4.50;0.52;;;;;;;;;;5007541;28;20061;-82
2023/01/15 05:41:47;;;;;;;4.82;0.82;;;;;;;;;;5003475;28;20080;-82
2023/01/15 05:44:15;;;;;;;4.65;0.82;;;;;;;;;;4999540;28;20087;-82
2023/01/15 05:46:41;;;;;;;6.07;1.02;;;;;;;;;;5003541;28;20463;-82
2023/01/15 05:49:10;;;;;;;5.18;1.00;;;;;;;;;;5005297;28;20169;-83
2023/01/15 05:51:36;;;;;;;5.03;1.10;;;;;;;;;;5005526;28;20022;-82
2023/01/15 05:54:04;;;;;;;5.30;1.40;;;;;;;;;;5003506;28;20045;-82
2023/01/15 05:56:29;;;;;;;5.25;0.80;;;;;;;;;;5007251;28;20034;-83
2023/01/15 05:58:55;;;;;;;2.85;0.70;;;;;;;;;;5000628;28;20041;-82
2023/01/15 06:01:21;;;;;;;5.50;0.90;;;;;;;;;;4999472;28;20018;-82
2023/01/15 06:03:47;;;;;;;3.55;0.70;;;;;;;;;;5017716;28;20033;-82
2023/01/15 06:06:15;;;;;;;2.50;0.93;;;;;;;;;;5005004;28;20037;-83
2023/01/15 06:08:41;;;;;;;4.75;0.70;;;;;;;;;;5008901;28;20022;-82
2023/01/15 06:11:06;;;;;;;3.55;0.57;;;;;;;;;;5011477;28;20041;-83
2023/01/15 06:13:32;;;;;;;4.10;0.80;;;;;;;;;;5005287;28;20541;-82
2023/01/15 06:15:59;;;;;;;4.57;0.90;;;;;;;;;;5004465;28;20466;-82
2023/01/15 06:18:24;;;;;;;5.22;1.10;;;;;;;;;;5004508;28;20025;-82
2023/01/15 06:20:50;;;;;;;6.22;0.80;;;;;;;;;;5006479;28;20397;-82
2023/01/15 06:23:16;;;;;;;5.70;0.82;;;;;;;;;;5010673;28;20482;-83
2023/01/15 06:25:42;;;;;;;6.07;0.80;;;;;;;;;;5006417;28;20179;-83
2023/01/15 06:28:08;;;;;;;5.80;0.90;;;;;;;;;;5002929;28;20487;-83
2023/01/15 06:30:36;;;;;;;5.57;1.15;;;;;;;;;;5009675;28;20477;-83
2023/01/15 06:33:01;;;;;;;3.95;0.85;;;;;;;;;;5005803;28;20026;-83
2023/01/15 06:35:26;;;;;;;8.73;0.90;;;;;;;;;;5008839;28;20034;-82
2023/01/15 06:37:52;;;;;;;4.18;0.60;;;;;;;;;;5008161;28;20076;-83
2023/01/15 06:40:18;;;;;;;6.93;0.80;;;;;;;;;;5024337;28;20026;-83
2023/01/15 06:48:19;;;;;;;5.93;0.70;;;;;;;;;;5008001;28;20065;-82
2023/01/15 06:50:45;;;;;;;4.50;1.00;;;;;;;;;;5008465;28;20025;-82
2023/01/15 06:53:10;;;;;;;6.82;1.08;;;;;;;;;;5008571;28;20030;-83
2023/01/15 06:55:35;;;;;;;4.10;0.80;;;;;;;;;;5010342;28;20056;-83
2023/01/15 06:58:04;;;;;;;3.75;0.93;;;;;;;;;;5008760;28;20429;-82
2023/01/15 07:00:29;;;;;;;3.58;0.80;;;;;;;;;;5006685;28;20034;-82
2023/01/15 07:02:55;;;;;;;3.80;0.68;;;;;;;;;;5007570;28;20386;-82
2023/01/15 07:05:20;;;;;;;5.07;1.35;;;;;;;;;;5005049;28;20029;-82
2023/01/15 07:07:45;;;;;;;4.78;0.90;;;;;;;;;;5011468;28;20543;-83
2023/01/15 07:10:11;;;;;;;4.55;0.80;;;;;;;;;;5006809;28;20033;-82
2023/01/15 07:12:36;;;;;;;3.08;0.75;;;;;;;;;;5008736;28;20394;-82
2023/01/15 07:15:02;;;;;;;8.20;0.93;;;;;;;;;;5009336;28;20076;-83
2023/01/15 07:17:27;;;;;;;3.80;0.90;;;;;;;;;;5009441;28;20030;-83
2023/01/15 07:19:52;;;;;;;6.72;0.70;;;;;;;;;;5009366;28;20482;-83
2023/01/15 07:22:18;;;;;;;3.58;0.70;;;;;;;;;;5007999;28;20030;-83
2023/01/15 07:24:43;;;;;;;5.28;0.85;;;;;;;;;;5011093;28;20104;-82
2023/01/15 07:27:09;;;;;;;4.90;1.00;;;;;;;;;;5007984;28;20100;-83
2023/01/15 07:29:34;;;;;;;6.13;0.80;;;;;;;;;;5004681;28;20112;-83
2023/01/15 07:31:59;;;;;;;6.30;0.95;;;;;;;;;;5022302;28;20052;-82
2023/01/15 07:34:25;;;;;;;4.32;0.93;;;;;;;;;;5006841;28;20084;-82
2023/01/15 07:36:50;;;;;;;8.00;0.85;;;;;;;;;;5002740;28;20490;-82
2023/01/15 07:39:16;;;;;;;3.50;0.70;;;;;;;;;;5003900;28;20025;-83
2023/01/15 07:50:03;;;;;;;2.93;0.80;;;;;;;;;;5001331;28;20033;-82
2023/01/15 07:52:28;;;;;;;4.00;0.85;;;;;;;;;;5005165;28;20283;-82
2023/01/15 07:54:53;;;;;;;7.53;0.77;;;;;;;;;;5009832;28;20056;-83
2023/01/15 07:57:21;;;;;;;4.32;0.82;;;;;;;;;;5005226;28;20053;-83
2023/01/15 07:59:47;;;;;;;4.45;1.77;;;;;;;;;;5005853;28;20402;-83
2023/01/15 08:02:12;;;;;;;3.67;0.60;;;;;;;;;;5020548;28;20089;-83
2023/01/15 08:04:39;;;;;;;6.57;0.85;;;;;;;;;;5007830;28;20025;-82
2023/01/15 08:07:04;;;;;;;5.00;0.75;;;;;;;;;;5008839;28;20393;-82
2023/01/15 08:09:30;;;;;;;2.75;0.70;;;;;;;;;;5002857;28;20036;-83
2023/01/15 08:17:26;;;;;;;4.78;0.95;;;;;;;;;;5014099;28;20033;-82
2023/01/15 08:19:51;;;;;;;3.28;0.63;;;;;;;;;;5009323;28;20471;-83
2023/01/15 08:22:17;;;;;;;1.55;0.50;;;;;;;;;;5003828;28;20068;-83
2023/01/15 08:24:42;;;;;;;3.83;0.57;;;;;;;;;;5009612;28;20065;-83
2023/01/15 08:27:08;;;;;;;6.32;0.77;;;;;;;;;;5022399;28;20030;-82
2023/01/15 08:29:33;;;;;;;7.10;0.90;;;;;;;;;;5012179;28;20022;-83
2023/01/15 08:31:58;;;;;;;2.15;0.63;;;;;;;;;;5011746;28;20026;-83
2023/01/15 08:34:24;;;;;;;3.28;0.60;;;;;;;;;;5019247;28;20030;-83
2023/01/15 08:36:55;;;;;;;3.75;0.85;;;;;;;;;;5014273;28;20117;-82
2023/01/15 08:39:21;;;;;;;8.38;0.95;;;;;;;;;;5014029;28;20030;-83
2023/01/15 08:41:47;;;;;;;1.45;0.47;;;;;;;;;;5010175;28;20405;-83
2023/01/15 08:44:12;;;;;;;3.47;0.70;;;;;;;;;;5014038;28;20030;-82
2023/01/15 08:46:38;;;;;;;4.25;0.70;;;;;;;;;;5011145;28;20128;-82
2023/01/15 08:49:03;;;;;;;4.95;0.95;;;;;;;;;;5009396;28;20022;-82
2023/01/15 08:51:28;;;;;;;6.20;0.77;;;;;;;;;;5014547;28;20425;-83
2023/01/15 08:53:54;;;;;;;2.55;0.63;;;;;;;;;;5007758;28;20033;-84
2023/01/15 08:56:19;;;;;;;6.20;1.17;;;;;;;;;;5012111;28;20475;-83
2023/01/15 08:58:46;;;;;;;2.90;0.60;;;;;;;;;;5008552;28;20034;-83
2023/01/15 09:01:14;;;;;;;4.97;0.73;;;;;;;;;;5011554;28;20087;-83
2023/01/15 09:03:41;;;;;;;7.43;0.70;;;;;;;;;;5015467;28;20393;-82
2023/01/15 09:06:07;;;;;;;3.22;0.50;;;;;;;;;;5015008;28;20069;-82
2023/01/15 09:08:33;;;;;;;2.83;0.70;;;;;;;;;;5014449;28;20104;-82
2023/01/15 09:11:01;;;;;;;7.03;1.40;;;;;;;;;;5014711;28;20108;-83
2023/01/15 09:13:27;;;;;;;2.60;0.55;;;;;;;;;;5005832;28;20049;-83
2023/01/15 09:15:53;;;;;;;5.10;0.90;;;;;;;;;;5010504;28;20126;-82
2023/01/15 09:18:19;;;;;;;5.53;0.93;;;;;;;;;;5012409;28;20029;-83
2023/01/15 09:20:47;;;;;;;4.90;0.70;;;;;;;;;;5002291;28;20900;-84
2023/01/15 09:23:14;;;;;;;4.00;0.70;;;;;;;;;;5011166;28;20105;-83
2023/01/15 09:25:41;;;;;;;4.22;0.80;;;;;;;;;;5002054;28;20338;-83
2023/01/15 09:28:06;;;;;;;4.72;0.70;;;;;;;;;;5008099;28;20034;-82
2023/01/15 09:30:32;;;;;;;2.65;0.63;;;;;;;;;;5010433;28;20037;-82
2023/01/15 09:32:57;;;;;;;4.18;0.57;;;;;;;;;;5018591;28;20019;-82
2023/01/15 09:35:23;;;;;;;5.65;0.60;;;;;;;;;;5006278;28;20088;-82
2023/01/15 09:37:52;;;;;;;2.53;0.82;;;;;;;;;;5010298;28;20033;-83
2023/01/15 09:40:55;;;;;;;5.07;0.75;;;;;;;;;;5004750;28;20037;-83
2023/01/15 09:43:27;;;;;;;4.03;0.60;;;;;;;;;;5001780;28;20040;-83
2023/01/15 09:46:07;;;;;;;7.47;0.70;;;;;;;;;;5005986;28;20026;-83
2023/01/15 09:48:52;;;;;;;6.63;0.98;;;;;;;;;;5001817;28;20040;-83
2023/01/15 09:51:54;;;;;;;4.22;1.17;;;;;;;;;;5003660;28;20018;-83
2023/01/15 09:54:57;;;;;;;7.93;1.02;;;;;;;;;;5000395;28;21609;-82
2023/01/15 09:57:24;;;;;;;6.43;0.90;;;;;;;;;;5003464;28;20025;-83
2023/01/15 09:59:59;;;;;;;7.28;0.88;;;;;;;;;;5003678;28;20034;-82
2023/01/15 10:02:37;;;;;;;2.50;0.70;;;;;;;;;;5004721;28;20557;-82
2023/01/15 10:05:20;;;;;;;5.03;0.93;;;;;;;;;;5005039;28;20026;-82
2023/01/15 10:07:57;;;;;;;4.22;0.60;;;;;;;;;;5006466;28;20393;-83
2023/01/15 10:10:28;;;;;;;5.43;0.85;;;;;;;;;;5024569;28;21139;-83
2023/01/15 10:13:02;;;;;;;6.30;0.80;;;;;;;;;;5012336;28;20030;-82
2023/01/15 10:15:42;;;;;;;4.75;0.80;;;;;;;;;;5025383;28;20017;-83
2023/01/15 10:18:18;;;;;;;3.72;0.80;;;;;;;;;;5021606;28;20036;-82
2023/01/15 10:21:04;;;;;;;6.93;1.45;;;;;;;;;;5005673;28;20029;-83
2023/01/15 10:23:51;;;;;;;5.82;0.93;;;;;;;;;;5020737;28;20025;-83
2023/01/15 10:26:22;;;;;;;10.05;1.20;;;;;;;;;;5026173;28;20120;-83
2023/01/15 10:29:08;;;;;;;5.38;0.68;;;;;;;;;;5012451;28;20057;-82
2023/01/15 10:31:53;;;;;;;8.27;0.77;;;;;;;;;;5011622;28;20200;-83
2023/01/15 10:34:39;;;;;;;3.45;0.40;;;;;;;;;;5010876;28;20056;-83
2023/01/15 10:37:37;;;;;;;2.72;0.52;;;;;;;;;;4986317;28;20042;-82
2023/01/15 10:40:21;;;;;;;6.15;1.02;;;;;;;;;;5008065;28;20656;-83
2023/01/15 10:42:53;;;;;;;5.07;0.90;;;;;;;;;;5024634;28;20502;-82
2023/01/15 10:45:25;;;;;;;2.53;0.80;;;;;;;;;;5011954;28;20071;-82
2023/01/15 10:47:59;;;;;;;5.28;0.60;;;;;;;;;;5011100;28;20402;-82
2023/01/15 10:50:25;;;;;;;6.38;0.60;;;;;;;;;;5008678;28;20184;-82
2023/01/15 10:53:01;;;;;;;6.55;1.00;;;;;;;;;;5009407;28;20445;-82
2023/01/15 10:55:37;;;;;;;8.25;1.15;;;;;;;;;;5009802;28;20544;-82
2023/01/15 10:58:26;;;;;;;5.63;1.23;;;;;;;;;;5008983;28;20504;-82
2023/01/15 11:01:07;;;;;;;5.18;0.80;;;;;;;;;;5004721;28;20299;-82
2023/01/15 11:03:42;;;;;;;5.75;0.98;;;;;;;;;;5007792;28;20018;-82
2023/01/15 11:06:13;;;;;;;4.32;0.80;;;;;;;;;;5008744;28;20037;-82
2023/01/15 11:08:46;;;;;;;7.88;0.93;;;;;;;;;;5007957;28;20065;-82
2023/01/15 11:11:19;;;;;;;3.78;1.13;;;;;;;;;;5005624;28;20486;-83
2023/01/15 11:19:41;;;;;;;5.47;0.63;;;;;;;;;;5014084;28;20084;-82
2023/01/15 11:22:08;;;;;;;6.35;0.85;;;;;;;;;;5010254;28;20537;-83
2023/01/15 11:24:37;;;;;;;4.68;0.80;;;;;;;;;;5012429;28;20022;-82
2023/01/15 11:27:05;;;;;;;5.22;0.90;;;;;;;;;;5008299;28;20037;-83
2023/01/15 11:29:37;;;;;;;3.22;0.75;;;;;;;;;;5022191;28;20113;-83
2023/01/15 11:32:03;;;;;;;5.00;0.73;;;;;;;;;;5006869;28;20085;-83
2023/01/15 11:34:28;;;;;;;4.30;1.02;;;;;;;;;;5033753;28;20092;-83
2023/01/15 11:37:02;;;;;;;3.85;1.02;;;;;;;;;;5012022;28;20025;-82
2023/01/15 11:39:29;;;;;;;4.90;1.17;;;;;;;;;;5007028;28;20203;-83
2023/01/15 11:51:05;;;;;;;2.92;0.70;;;;;;;;;;5017961;28;20041;-82
2023/01/15 11:53:33;;;;;;;3.72;0.60;;;;;;;;;;5001440;28;20030;-82
2023/01/15 11:56:02;;;;;;;3.15;0.85;;;;;;;;;;5014727;28;20474;-83
2023/01/15 11:58:32;;;;;;;3.45;0.80;;;;;;;;;;5019642;28;20029;-83
2023/01/15 12:00:58;;;;;;;2.90;0.80;;;;;;;;;;5024909;28;20045;-82
2023/01/15 12:03:28;;;;;;;2.03;0.73;;;;;;;;;;5016539;28;20106;-82
2023/01/15 12:06:08;;;;;;;3.25;0.77;;;;;;;;;;5018351;28;20095;-82
2023/01/15 12:08:49;;;;;;;3.95;0.60;;;;;;;;;;5011814;28;20042;-83
2023/01/15 12:12:02;;;;;;;2.97;0.70;;;;;;;;;;5020925;28;20025;-82
2023/01/15 12:14:45;;;;;;;2.35;0.57;;;;;;;;;;5007117;28;20041;-83
2023/01/15 12:17:32;;;;;;;5.13;0.90;;;;;;;;;;5012412;28;20030;-83
2023/01/15 12:20:31;;;;;;;3.72;0.80;;;;;;;;;;5029231;28;20029;-83
2023/01/15 12:23:34;;;;;;;2.20;0.57;;;;;;;;;;5005435;28;20104;-83
2023/01/15 12:26:18;;;;;;;3.83;0.57;;;;;;;;;;5013755;28;20164;-83
2023/01/15 12:29:26;;;;;;;2.67;0.93;;;;;;;;;;5023979;28;20099;-83
2023/01/15 12:32:06;;;;;;;2.45;0.80;;;;;;;;;;5003461;28;20049;-83
2023/01/15 12:34:50;;;;;;;2.55;0.80;;;;;;;;;;5026655;28;20065;-83
2023/01/15 12:37:23;;;;;;;3.08;1.00;;;;;;;;;;5005797;28;20033;-83
2023/01/15 12:39:57;;;;;;;7.28;1.10;;;;;;;;;;5005240;28;20355;-83
2023/01/15 12:45:13;;;;;;;6.05;1.83;;;;;;;;;;5012844;28;20037;-83
2023/01/15 12:48:27;;;;;;;4.90;0.90;;;;;;;;;;5010120;28;20033;-83
2023/01/15 12:50:59;;;;;;;2.90;0.80;;;;;;;;;;5010878;28;20152;-83
2023/01/15 12:53:31;;;;;;;4.70;1.35;;;;;;;;;;5009826;28;20117;-83
2023/01/15 12:56:09;;;;;;;1.80;0.82;;;;;;;;;;5002054;28;20140;-82
2023/01/15 12:58:40;;;;;;;1.92;0.93;;;;;;;;;;5012525;28;20032;-83
2023/01/15 13:01:22;;;;;;;3.80;0.90;;;;;;;;;;5015737;28;20544;-83
2023/01/15 13:04:16;;;;;;;4.30;1.00;;;;;;;;;;4998988;28;20042;-83
2023/01/15 13:06:47;;;;;;;3.15;1.00;;;;;;;;;;5002837;28;20594;-82
2023/01/15 13:09:43;;;;;;;3.03;0.90;;;;;;;;;;5007386;28;20482;-83
2023/01/15 13:12:18;;;;;;;2.60;0.90;;;;;;;;;;5005508;28;20101;-83
2023/01/15 13:14:43;;;;;;;3.78;1.08;;;;;;;;;;5001364;28;20041;-83
2023/01/15 13:17:32;;;;;;;3.97;1.13;;;;;;;;;;5016588;28;20029;-83
2023/01/15 13:20:00;;;;;;;3.38;1.05;;;;;;;;;;4994297;28;20501;-82
2023/01/15 13:22:29;;;;;;;2.10;0.85;;;;;;;;;;5000362;28;20029;-83
2023/01/15 13:25:45;;;;;;;4.13;1.13;;;;;;;;;;5004426;28;20588;-83
2023/01/15 13:28:11;;;;;;;3.50;0.88;;;;;;;;;;4982193;28;20050;-82
2023/01/15 13:31:17;;;;;;;5.35;1.45;;;;;;;;;;5006627;28;20045;-82
2023/01/15 13:33:47;;;;;;;2.30;0.63;;;;;;;;;;5002462;28;20636;-82
2023/01/15 13:36:24;;;;;;;4.25;0.95;;;;;;;;;;5001858;28;20716;-83
2023/01/15 13:38:54;;;;;;;4.35;1.05;;;;;;;;;;5003484;28;20105;-82
2023/01/15 13:44:35;;;;;;;3.15;0.70;;;;;;;;;;5006938;28;20060;-83
2023/01/15 13:47:06;;;;;;;1.58;0.80;;;;;;;;;;4998363;28;20413;-83
2023/01/15 13:49:39;;;;;;;3.78;0.90;;;;;;;;;;5004542;28;20407;-82
2023/01/15 13:52:07;;;;;;;4.90;1.08;;;;;;;;;;5002445;28;20029;-82
2023/01/15 13:54:38;;;;;;;5.60;1.10;;;;;;;;;;5000890;28;20409;-83
2023/01/15 13:57:32;;;;;;;3.92;1.23;;;;;;;;;;4998312;28;20540;-83
2023/01/15 13:59:57;;;;;;;3.10;0.90;;;;;;;;;;4993744;28;20069;-83
2023/01/15 14:02:37;;;;;;;1.80;0.80;;;;;;;;;;4994108;28;20492;-82
2023/01/15 14:05:21;;;;;;;3.28;0.90;;;;;;;;;;5008613;28;20555;-82
2023/01/15 14:07:47;;;;;;;1.90;0.90;;;;;;;;;;4992599;28;20058;-83
2023/01/15 14:10:19;;;;;;;4.68;1.00;;;;;;;;;;4992675;28;20581;-83
2023/01/15 14:13:09;;;;;;;4.03;1.10;;;;;;;;;;4993252;28;20026;-83
2023/01/15 14:15:42;;;;;;;3.50;0.98;;;;;;;;;;5011656;28;20517;-83
2023/01/15 14:18:16;;;;;;;5.88;1.02;;;;;;;;;;4989328;28;20386;-83
2023/01/15 14:20:43;;;;;;;2.92;1.20;;;;;;;;;;4994743;28;20038;-83
2023/01/15 14:23:26;;;;;;;3.85;1.05;;;;;;;;;;5004853;28;20053;-83
2023/01/15 14:26:45;;;;;;;3.95;0.95;;;;;;;;;;4999604;28;20087;-83
2023/01/15 14:29:52;;;;;;;7.35;1.15;;;;;;;;;;5082837;27;20135;-83
2023/01/15 14:32:41;;;;;;;5.07;0.90;;;;;;;;;;5090587;28;20054;-83
2023/01/15 14:35:18;;;;;;;4.80;1.08;;;;;;;;;;5080722;28;20526;-84
2023/01/15 14:37:50;;;;;;;3.08;0.80;;;;;;;;;;5103062;28;20024;-83
2023/01/15 14:40:27;;;;;;;5.25;0.93;;;;;;;;;;5093676;28;20576;-83
2023/01/15 14:43:05;;;;;;;4.25;0.98;;;;;;;;;;5093430;28;20036;-84
2023/01/15 14:45:34;;;;;;;2.45;1.02;;;;;;;;;;5103309;28;20127;-84
2023/01/15 14:48:02;;;;;;;2.40;0.90;;;;;;;;;;5102971;27;20028;-83
2023/01/15 14:50:33;;;;;;;5.10;1.30;;;;;;;;;;5097326;28;20032;-83
2023/01/15 14:53:10;;;;;;;3.45;1.00;;;;;;;;;;5103578;28;20089;-83
2023/01/15 14:55:57;;;;;;;2.15;0.75;;;;;;;;;;5099363;27;20039;-82
2023/01/15 14:58:53;;;;;;;4.95;1.17;;;;;;;;;;5110534;28;20027;-83
2023/01/15 15:01:43;;;;;;;3.05;0.82;;;;;;;;;;5102296;28;20035;-83
2023/01/15 15:04:30;;;;;;;3.75;0.82;;;;;;;;;;5107426;28;20111;-83
2023/01/15 15:07:00;;;;;;;4.45;1.13;;;;;;;;;;5106844;28;20035;-83
2023/01/15 15:09:28;;;;;;;2.83;0.90;;;;;;;;;;5105768;28;20111;-83
2023/01/15 15:12:20;;;;;;;2.13;0.80;;;;;;;;;;5112158;27;20122;-83
2023/01/15 15:15:17;;;;;;;2.83;0.90;;;;;;;;;;5103046;28;20386;-83
2023/01/15 15:17:53;;;;;;;6.20;1.00;;;;;;;;;;5095808;28;20055;-83
2023/01/15 15:20:33;;;;;;;5.30;1.00;;;;;;;;;;5110279;28;20020;-83
2023/01/15 15:23:17;;;;;;;4.72;1.13;;;;;;;;;;5098429;28;20031;-83
2023/01/15 15:25:56;;;;;;;8.93;1.20;;;;;;;;;;5102152;28;20038;-83
2023/01/15 15:28:22;;;;;;;2.45;0.70;;;;;;;;;;5100941;27;20387;-83
2023/01/15 15:30:48;;;;;;;4.10;1.20;;;;;;;;;;5106655;28;20038;-83
2023/01/15 15:33:20;;;;;;;4.50;0.75;;;;;;;;;;5098602;28;20584;-83
2023/01/15 15:35:54;;;;;;;3.03;0.90;;;;;;;;;;5106209;28;20023;-83
2023/01/15 15:38:22;;;;;;;2.92;0.80;;;;;;;;;;5101656;28;20055;-83
2023/01/15 15:40:52;;;;;;;6.28;0.88;;;;;;;;;;5084575;28;20134;-83
2023/01/15 15:49:19;;;;;;;0.88;0.55;;;;;;;;;;5087704;28;20043;-83
2023/01/15 15:51:47;;;;;;;3.10;0.90;;;;;;;;;;5090982;28;20032;-83
2023/01/15 15:54:22;;;;;;;3.13;1.10;;;;;;;;;;5086933;28;20130;-83
2023/01/15 15:57:08;;;;;;;2.28;0.70;;;;;;;;;;5090182;28;20023;-83
2023/01/15 15:59:44;;;;;;;1.80;0.73;;;;;;;;;;5086629;28;20031;-83
2023/01/15 16:02:18;;;;;;;1.83;0.88;;;;;;;;;;5089953;28;20031;-83
2023/01/15 16:04:48;;;;;;;3.47;0.85;;;;;;;;;;5086149;28;20515;-83